Time;durP1;ratioP1;P1;durP2;ratioP2;P2;SDS_P1;SDS_P2;PMS_P1;PMS_P2;Temp;Humidity;BMP_temperature;BMP_pressure;BME280_temperature;BME280_humidity;BME280_pressure;Samples;Min_cycle;Max_cycle;Signal;HPM_P1;HPM_P2
2023/09/15 00:02:31;;;;;;;3.63;2.60;;;;;;;;;;10357731;28;20477;-86
2023/09/15 00:07:33;;;;;;;4.20;2.70;;;;;;;;;;10344524;28;20773;-86
2023/09/15 00:12:36;;;;;;;4.05;3.20;;;;;;;;;;10341327;28;20511;-86
2023/09/15 00:17:42;;;;;;;4.05;3.22;;;;;;;;;;10333712;28;20456;-85
2023/09/15 00:22:48;;;;;;;4.13;3.27;;;;;;;;;;10338930;28;20441;-86
2023/09/15 00:27:53;;;;;;;3.80;2.80;;;;;;;;;;10342323;28;20458;-86
2023/09/15 00:32:57;;;;;;;7.03;3.42;;;;;;;;;;10346807;28;20746;-86
2023/09/15 00:37:59;;;;;;;5.30;3.47;;;;;;;;;;10342391;28;20477;-86
2023/09/15 00:43:02;;;;;;;4.05;3.30;;;;;;;;;;10324779;28;20430;-86
2023/09/15 00:48:06;;;;;;;7.22;3.90;;;;;;;;;;10328784;28;20518;-86
2023/09/15 00:53:14;;;;;;;4.32;3.60;;;;;;;;;;10343119;28;20440;-86
2023/09/15 00:58:19;;;;;;;5.45;3.50;;;;;;;;;;10329905;28;20444;-86
2023/09/15 01:03:24;;;;;;;5.13;3.45;;;;;;;;;;10333867;28;20515;-86
2023/09/15 01:08:26;;;;;;;4.03;3.20;;;;;;;;;;10328098;28;20462;-86
2023/09/15 01:13:29;;;;;;;4.13;3.72;;;;;;;;;;10346775;28;20455;-86
2023/09/15 01:18:42;;;;;;;5.78;3.67;;;;;;;;;;10340704;28;20515;-86
2023/09/15 01:24:21;;;;;;;6.38;4.15;;;;;;;;;;10334712;28;20496;-86
2023/09/15 01:29:39;;;;;;;6.53;3.90;;;;;;;;;;10330215;28;20886;-86
2023/09/15 01:34:48;;;;;;;5.25;3.90;;;;;;;;;;10344611;28;20972;-86
2023/09/15 01:39:52;;;;;;;6.47;4.20;;;;;;;;;;10330504;28;20483;-85
2023/09/15 01:44:56;;;;;;;7.00;4.57;;;;;;;;;;10346809;28;20485;-86
2023/09/15 01:49:59;;;;;;;6.80;4.60;;;;;;;;;;10332619;28;20494;-85
2023/09/15 01:55:03;;;;;;;6.45;5.13;;;;;;;;;;10332058;28;20456;-86
2023/09/15 02:00:08;;;;;;;8.80;5.63;;;;;;;;;;10320097;28;20510;-86
2023/09/15 02:05:13;;;;;;;7.43;5.70;;;;;;;;;;10329908;28;20514;-86
2023/09/15 02:10:16;;;;;;;8.90;5.90;;;;;;;;;;10336362;28;20440;-86
2023/09/15 02:15:21;;;;;;;7.25;5.20;;;;;;;;;;10338361;28;20519;-86
2023/09/15 02:20:23;;;;;;;7.90;5.13;;;;;;;;;;10337881;28;20924;-85
2023/09/15 02:25:26;;;;;;;7.63;4.90;;;;;;;;;;10335176;28;20440;-85
2023/09/15 02:30:29;;;;;;;7.00;4.70;;;;;;;;;;10338360;28;20477;-85
2023/09/15 02:35:32;;;;;;;7.25;4.43;;;;;;;;;;10324621;28;20526;-86
2023/09/15 02:40:34;;;;;;;5.10;4.07;;;;;;;;;;10328383;28;20483;-86
2023/09/15 02:45:38;;;;;;;4.83;3.63;;;;;;;;;;10343073;28;20999;-86
2023/09/15 02:50:42;;;;;;;5.47;3.53;;;;;;;;;;10345905;28;20421;-85
2023/09/15 02:55:54;;;;;;;4.93;3.63;;;;;;;;;;10325350;28;20833;-85
2023/09/15 03:00:58;;;;;;;4.90;3.40;;;;;;;;;;10338329;28;20458;-86
2023/09/15 03:06:04;;;;;;;5.50;3.30;;;;;;;;;;10336722;28;20588;-85
2023/09/15 03:11:12;;;;;;;4.43;2.88;;;;;;;;;;10344410;28;20442;-85
2023/09/15 03:16:16;;;;;;;4.25;3.20;;;;;;;;;;10333043;28;20456;-86
2023/09/15 03:21:19;;;;;;;3.60;3.10;;;;;;;;;;10347220;28;20417;-86
2023/09/15 03:26:21;;;;;;;4.43;3.30;;;;;;;;;;10342909;28;20449;-85
2023/09/15 03:31:25;;;;;;;4.90;3.30;;;;;;;;;;10341799;28;20929;-85
2023/09/15 03:36:28;;;;;;;4.22;3.20;;;;;;;;;;10346279;28;20437;-86
2023/09/15 03:41:30;;;;;;;4.82;3.45;;;;;;;;;;10343766;28;20459;-86
2023/09/15 03:46:34;;;;;;;4.18;3.40;;;;;;;;;;10333244;28;20556;-86
2023/09/15 03:51:37;;;;;;;5.72;3.50;;;;;;;;;;10340572;28;20408;-85
2023/09/15 03:56:39;;;;;;;6.03;3.45;;;;;;;;;;10348650;28;20427;-85
2023/09/15 04:01:43;;;;;;;3.90;2.90;;;;;;;;;;10338361;28;20524;-86
2023/09/15 04:06:45;;;;;;;4.53;2.88;;;;;;;;;;10342060;28;20495;-84
2023/09/15 04:11:48;;;;;;;3.88;3.10;;;;;;;;;;10329048;28;20435;-85
2023/09/15 04:16:52;;;;;;;4.82;3.38;;;;;;;;;;10326231;28;20497;-86
2023/09/15 04:21:54;;;;;;;5.70;2.90;;;;;;;;;;10346161;28;20411;-86
2023/09/15 04:26:57;;;;;;;3.92;2.80;;;;;;;;;;10344309;28;20417;-86
2023/09/15 04:32:00;;;;;;;6.47;3.03;;;;;;;;;;10338068;28;20405;-86
2023/09/15 04:37:03;;;;;;;3.57;3.00;;;;;;;;;;10327837;28;20440;-86
2023/09/15 04:42:06;;;;;;;3.63;3.03;;;;;;;;;;10317726;28;20435;-86
2023/09/15 04:47:11;;;;;;;4.00;2.92;;;;;;;;;;10337049;28;20452;-86
2023/09/15 04:52:13;;;;;;;3.90;2.97;;;;;;;;;;10334666;28;20408;-86
2023/09/15 04:57:16;;;;;;;3.47;2.90;;;;;;;;;;10337543;28;20432;-86
2023/09/15 05:02:22;;;;;;;3.07;2.50;;;;;;;;;;10332710;28;20997;-86
2023/09/15 05:07:24;;;;;;;3.70;2.95;;;;;;;;;;10331656;28;20432;-85
2023/09/15 05:12:27;;;;;;;3.50;2.80;;;;;;;;;;10327603;28;20515;-86
2023/09/15 05:17:31;;;;;;;3.70;2.95;;;;;;;;;;10344488;28;20418;-86
2023/09/15 05:22:34;;;;;;;4.68;3.08;;;;;;;;;;10334320;28;20485;-84
2023/09/15 05:27:36;;;;;;;4.30;3.13;;;;;;;;;;10341851;28;20444;-86
2023/09/15 05:32:40;;;;;;;3.47;2.90;;;;;;;;;;10344809;28;20456;-86
2023/09/15 05:37:42;;;;;;;5.28;2.90;;;;;;;;;;10340313;28;20405;-86
2023/09/15 05:42:45;;;;;;;3.37;3.07;;;;;;;;;;10338747;28;20412;-86
2023/09/15 05:47:48;;;;;;;4.43;2.80;;;;;;;;;;10340218;28;20495;-86
2023/09/15 05:52:50;;;;;;;3.58;2.88;;;;;;;;;;10344849;28;20433;-86
2023/09/15 05:57:53;;;;;;;4.38;2.95;;;;;;;;;;10341420;28;20403;-86
2023/09/15 06:02:56;;;;;;;3.53;2.87;;;;;;;;;;10347544;28;20417;-87
2023/09/15 06:07:59;;;;;;;4.10;3.00;;;;;;;;;;10345449;28;20407;-89
2023/09/15 06:13:01;;;;;;;3.60;2.90;;;;;;;;;;10349684;28;20431;-89
2023/09/15 06:18:05;;;;;;;3.67;3.20;;;;;;;;;;10347304;28;20486;-89
2023/09/15 06:23:07;;;;;;;3.80;3.20;;;;;;;;;;10364752;28;20403;-88
2023/09/15 06:28:10;;;;;;;4.43;3.53;;;;;;;;;;10363180;28;20477;-90
2023/09/15 06:33:13;;;;;;;4.80;3.47;;;;;;;;;;10350570;28;20506;-89
2023/09/15 06:38:16;;;;;;;6.53;4.00;;;;;;;;;;10363904;28;20957;-89
2023/09/15 06:43:18;;;;;;;5.70;4.00;;;;;;;;;;10356766;28;20949;-88
2023/09/15 06:48:22;;;;;;;3.85;3.42;;;;;;;;;;10351016;28;20421;-88
2023/09/15 06:53:24;;;;;;;4.18;3.05;;;;;;;;;;10345371;28;20475;-88
2023/09/15 06:58:27;;;;;;;4.15;3.20;;;;;;;;;;10363629;28;20473;-88
2023/09/15 07:03:31;;;;;;;3.80;3.40;;;;;;;;;;10348471;28;20895;-89
2023/09/15 07:08:33;;;;;;;6.93;3.37;;;;;;;;;;10348822;28;20405;-88
2023/09/15 07:13:35;;;;;;;6.00;3.83;;;;;;;;;;10348411;28;20491;-87
2023/09/15 07:18:39;;;;;;;3.77;3.37;;;;;;;;;;10361306;28;20424;-88
2023/09/15 07:23:42;;;;;;;5.85;3.63;;;;;;;;;;10348191;28;20417;-88
2023/09/15 07:28:44;;;;;;;5.43;4.10;;;;;;;;;;10348910;28;20898;-87
2023/09/15 07:33:48;;;;;;;5.53;3.97;;;;;;;;;;10355579;28;20427;-87
2023/09/15 07:38:50;;;;;;;4.30;3.90;;;;;;;;;;10352166;28;20415;-88
2023/09/15 07:43:53;;;;;;;6.22;4.05;;;;;;;;;;10342796;28;20472;-88
2023/09/15 07:48:57;;;;;;;6.45;4.20;;;;;;;;;;10346734;28;20412;-87
2023/09/15 07:54:00;;;;;;;5.23;3.90;;;;;;;;;;10344568;28;20432;-88
2023/09/15 07:59:03;;;;;;;5.13;3.95;;;;;;;;;;10349369;28;20425;-87
2023/09/15 08:04:07;;;;;;;5.50;4.07;;;;;;;;;;10356638;28;20897;-88
2023/09/15 08:09:10;;;;;;;6.15;3.92;;;;;;;;;;10342238;28;20458;-88
2023/09/15 08:14:12;;;;;;;6.83;4.50;;;;;;;;;;10343614;28;20428;-87
2023/09/15 08:19:16;;;;;;;6.28;4.47;;;;;;;;;;10353344;28;20471;-85
2023/09/15 08:24:20;;;;;;;5.75;4.20;;;;;;;;;;10354422;28;20427;-88
2023/09/15 08:29:22;;;;;;;7.70;4.85;;;;;;;;;;10355025;28;20810;-88
2023/09/15 08:34:26;;;;;;;6.85;4.65;;;;;;;;;;10345128;28;20428;-88
2023/09/15 08:39:28;;;;;;;8.85;4.53;;;;;;;;;;10353699;28;20425;-88
2023/09/15 08:44:32;;;;;;;7.18;4.70;;;;;;;;;;10366114;28;20497;-88
2023/09/15 08:49:36;;;;;;;5.65;4.38;;;;;;;;;;10358992;28;20422;-88
2023/09/15 08:54:39;;;;;;;5.80;4.38;;;;;;;;;;10339329;28;20428;-88
2023/09/15 08:59:41;;;;;;;6.30;4.53;;;;;;;;;;10344128;28;20469;-88
2023/09/15 09:04:46;;;;;;;9.43;5.33;;;;;;;;;;10322222;28;20481;-87
2023/09/15 09:09:49;;;;;;;6.03;4.40;;;;;;;;;;10353137;28;20413;-89
2023/09/15 09:14:55;;;;;;;6.72;4.75;;;;;;;;;;10338029;28;20459;-88
2023/09/15 09:19:58;;;;;;;9.57;4.80;;;;;;;;;;10356268;28;20407;-89
2023/09/15 09:25:00;;;;;;;6.75;4.28;;;;;;;;;;10348121;28;20405;-90
2023/09/15 09:30:04;;;;;;;7.30;4.60;;;;;;;;;;10337413;28;20405;-90
2023/09/15 09:35:08;;;;;;;6.97;4.57;;;;;;;;;;10366212;28;20422;-89
2023/09/15 09:40:11;;;;;;;7.30;4.70;;;;;;;;;;10343386;28;20459;-89
2023/09/15 09:45:14;;;;;;;5.47;4.40;;;;;;;;;;10349423;28;20458;-88
2023/09/15 09:50:18;;;;;;;5.55;4.20;;;;;;;;;;10353367;28;20483;-89
2023/09/15 09:55:21;;;;;;;6.07;4.85;;;;;;;;;;10341908;28;20428;-89
2023/09/15 10:00:23;;;;;;;6.13;4.60;;;;;;;;;;10347482;28;20409;-89
2023/09/15 10:05:27;;;;;;;6.65;4.50;;;;;;;;;;10363571;28;21097;-89
2023/09/15 10:10:31;;;;;;;6.67;4.90;;;;;;;;;;10340960;28;20413;-89
2023/09/15 10:15:34;;;;;;;5.30;4.20;;;;;;;;;;10362568;28;20430;-89
2023/09/15 10:20:39;;;;;;;6.15;3.03;;;;;;;;;;10362198;28;20419;-89
2023/09/15 10:25:43;;;;;;;4.38;3.55;;;;;;;;;;10361617;28;20415;-90
2023/09/15 10:30:45;;;;;;;4.43;3.72;;;;;;;;;;10353400;28;20469;-91
2023/09/15 10:35:49;;;;;;;3.95;3.55;;;;;;;;;;10359285;28;20418;-90
2023/09/15 10:40:51;;;;;;;3.60;3.30;;;;;;;;;;10341762;28;20473;-90
2023/09/15 10:45:55;;;;;;;3.78;3.08;;;;;;;;;;10359865;28;20432;-90
2023/09/15 10:51:07;;;;;;;3.40;3.10;;;;;;;;;;10356582;28;20415;-89
2023/09/15 10:56:09;;;;;;;3.60;3.30;;;;;;;;;;10356881;28;20920;-89
2023/09/15 11:01:13;;;;;;;4.20;2.92;;;;;;;;;;10351963;28;20952;-90
2023/09/15 11:06:19;;;;;;;3.85;3.00;;;;;;;;;;10352317;28;20462;-90
2023/09/15 11:11:21;;;;;;;4.75;3.00;;;;;;;;;;10349789;28;20473;-90
2023/09/15 11:16:26;;;;;;;3.27;2.80;;;;;;;;;;10382035;28;20895;-90
2023/09/15 11:21:37;;;;;;;4.80;3.47;;;;;;;;;;10347951;28;20459;-91
2023/09/15 11:26:47;;;;;;;5.73;4.07;;;;;;;;;;10362606;28;20477;-90
2023/09/15 11:31:49;;;;;;;3.70;3.00;;;;;;;;;;10360246;28;20830;-89
2023/09/15 11:36:58;;;;;;;5.27;3.37;;;;;;;;;;10350513;28;20456;-90
2023/09/15 11:42:10;;;;;;;4.03;3.25;;;;;;;;;;10351448;28;20478;-90
2023/09/15 11:47:12;;;;;;;4.15;3.53;;;;;;;;;;10348514;28;20524;-88
2023/09/15 11:52:17;;;;;;;4.22;3.33;;;;;;;;;;10355856;28;20456;-90
2023/09/15 11:57:20;;;;;;;4.15;3.08;;;;;;;;;;10348315;28;20474;-88
2023/09/15 12:02:22;;;;;;;4.43;3.45;;;;;;;;;;10339481;28;20450;-85
2023/09/15 12:07:26;;;;;;;3.20;2.90;;;;;;;;;;10337001;28;20412;-84
2023/09/15 12:12:29;;;;;;;4.03;2.90;;;;;;;;;;10345112;28;20431;-89
2023/09/15 12:17:32;;;;;;;3.80;3.15;;;;;;;;;;10361263;28;20427;-90
2023/09/15 12:22:40;;;;;;;4.07;3.30;;;;;;;;;;10386307;28;20419;-90
2023/09/15 12:27:42;;;;;;;4.25;3.10;;;;;;;;;;10368163;28;20409;-89
2023/09/15 12:32:47;;;;;;;3.90;3.40;;;;;;;;;;10351120;28;20450;-88
2023/09/15 12:37:54;;;;;;;4.05;3.20;;;;;;;;;;10359175;28;20433;-88
2023/09/15 12:42:56;;;;;;;3.78;3.35;;;;;;;;;;10344566;28;20436;-88
2023/09/15 12:47:58;;;;;;;4.00;3.55;;;;;;;;;;10359413;28;20450;-88
2023/09/15 12:53:02;;;;;;;4.13;3.58;;;;;;;;;;10373145;28;20411;-88
2023/09/15 12:58:06;;;;;;;4.68;3.85;;;;;;;;;;10363669;28;20427;-88
2023/09/15 13:03:08;;;;;;;4.97;3.90;;;;;;;;;;10356750;28;20417;-88
2023/09/15 13:08:12;;;;;;;4.47;3.67;;;;;;;;;;10357879;28;20887;-88
2023/09/15 13:13:15;;;;;;;3.92;3.53;;;;;;;;;;10366757;28;20415;-89
2023/09/15 13:18:20;;;;;;;4.00;3.10;;;;;;;;;;10345070;28;20489;-88
2023/09/15 13:23:24;;;;;;;3.22;2.92;;;;;;;;;;10357154;28;20387;-88
2023/09/15 13:28:26;;;;;;;3.30;3.00;;;;;;;;;;10367078;28;20461;-89
2023/09/15 13:33:29;;;;;;;3.30;3.00;;;;;;;;;;10347009;28;20877;-89
2023/09/15 13:38:33;;;;;;;3.17;2.88;;;;;;;;;;10349705;28;20425;-88
2023/09/15 13:43:35;;;;;;;3.50;3.20;;;;;;;;;;10350032;28;20947;-88
2023/09/15 13:48:37;;;;;;;3.17;2.88;;;;;;;;;;10354534;28;20415;-89
2023/09/15 13:53:41;;;;;;;3.10;2.80;;;;;;;;;;10344234;28;21115;-89
2023/09/15 13:58:44;;;;;;;4.28;2.80;;;;;;;;;;10341090;28;20495;-87
2023/09/15 14:03:46;;;;;;;3.35;2.50;;;;;;;;;;10355243;28;20757;-86
2023/09/15 14:08:51;;;;;;;3.03;2.72;;;;;;;;;;10355191;28;20407;-86
2023/09/15 14:13:53;;;;;;;2.67;2.40;;;;;;;;;;10354092;28;20407;-88
2023/09/15 14:18:55;;;;;;;3.55;2.85;;;;;;;;;;10351653;28;20505;-87
2023/09/15 14:23:59;;;;;;;2.63;2.42;;;;;;;;;;10349643;28;20441;-84
2023/09/15 14:29:02;;;;;;;3.50;2.70;;;;;;;;;;10344326;28;20457;-83
2023/09/15 14:34:04;;;;;;;2.88;2.67;;;;;;;;;;10345710;28;20451;-84
2023/09/15 14:39:09;;;;;;;3.28;2.55;;;;;;;;;;10316105;28;20523;-84
2023/09/15 14:44:18;;;;;;;2.50;2.30;;;;;;;;;;10335731;28;20507;-84
2023/09/15 14:49:23;;;;;;;2.70;2.50;;;;;;;;;;10340165;28;20848;-84
2023/09/15 14:54:26;;;;;;;3.17;2.88;;;;;;;;;;10352459;28;20437;-85
2023/09/15 14:59:29;;;;;;;2.97;2.70;;;;;;;;;;10341588;28;20530;-83
2023/09/15 15:04:31;;;;;;;5.22;3.20;;;;;;;;;;10344391;28;20505;-84
2023/09/15 15:09:36;;;;;;;2.97;2.78;;;;;;;;;;10347097;28;20507;-84
2023/09/15 15:14:39;;;;;;;3.60;3.00;;;;;;;;;;10345666;28;20510;-83
2023/09/15 15:19:42;;;;;;;4.00;2.90;;;;;;;;;;10349057;28;20454;-84
2023/09/15 15:24:45;;;;;;;4.40;2.80;;;;;;;;;;10342128;28;20985;-84
2023/09/15 15:29:48;;;;;;;3.30;3.00;;;;;;;;;;10343339;28;20500;-84
2023/09/15 15:34:52;;;;;;;4.10;3.53;;;;;;;;;;10348235;28;20459;-84
2023/09/15 15:39:56;;;;;;;5.85;3.10;;;;;;;;;;10351093;28;20509;-84
2023/09/15 15:44:59;;;;;;;4.32;3.10;;;;;;;;;;10346844;28;20958;-84
2023/09/15 15:50:01;;;;;;;4.20;3.30;;;;;;;;;;10351099;28;20454;-83
2023/09/15 15:55:06;;;;;;;3.30;3.00;;;;;;;;;;10353774;28;20447;-88
2023/09/15 16:00:10;;;;;;;3.42;3.13;;;;;;;;;;10353736;28;20485;-81
2023/09/15 16:05:13;;;;;;;3.30;3.00;;;;;;;;;;10341545;28;20485;-86
2023/09/15 16:10:17;;;;;;;4.73;4.30;;;;;;;;;;10338045;28;20510;-86
2023/09/15 16:15:19;;;;;;;3.85;3.00;;;;;;;;;;10339096;28;20458;-86
2023/09/15 16:20:21;;;;;;;3.42;3.13;;;;;;;;;;10315972;28;20515;-87
2023/09/15 16:25:25;;;;;;;3.97;3.60;;;;;;;;;;10336654;28;20509;-86
2023/09/15 16:30:27;;;;;;;3.90;3.50;;;;;;;;;;10341736;28;20466;-85
2023/09/15 16:35:30;;;;;;;4.00;3.50;;;;;;;;;;10334454;28;20412;-86
2023/09/15 16:40:36;;;;;;;4.17;3.77;;;;;;;;;;10340204;28;20442;-86
2023/09/15 16:45:38;;;;;;;4.33;3.93;;;;;;;;;;10342499;28;20410;-85
2023/09/15 16:50:41;;;;;;;4.30;3.90;;;;;;;;;;10343766;28;20440;-86
2023/09/15 16:55:48;;;;;;;3.88;3.50;;;;;;;;;;10344346;28;20487;-85
2023/09/15 17:00:54;;;;;;;4.80;3.67;;;;;;;;;;10334662;28;20420;-86
2023/09/15 17:05:56;;;;;;;4.85;4.32;;;;;;;;;;10337374;28;20435;-86
2023/09/15 17:11:02;;;;;;;5.32;4.18;;;;;;;;;;10338608;28;20434;-86
2023/09/15 17:16:05;;;;;;;6.55;4.65;;;;;;;;;;10345812;28;20947;-85
2023/09/15 17:21:07;;;;;;;4.25;3.70;;;;;;;;;;10334727;28;20532;-87
2023/09/15 17:26:11;;;;;;;5.90;3.80;;;;;;;;;;10345108;28;20482;-88
2023/09/15 17:31:13;;;;;;;4.00;3.63;;;;;;;;;;10344176;28;20455;-87
2023/09/15 17:36:16;;;;;;;6.03;4.38;;;;;;;;;;10335451;28;21072;-87
2023/09/15 17:41:20;;;;;;;4.20;3.80;;;;;;;;;;10340796;28;20479;-86
2023/09/15 17:46:22;;;;;;;4.28;3.88;;;;;;;;;;10343200;28;20417;-87
2023/09/15 17:51:25;;;;;;;4.30;3.90;;;;;;;;;;10357990;28;20485;-81
2023/09/15 17:56:29;;;;;;;5.53;3.92;;;;;;;;;;10343595;28;20441;-88
2023/09/15 18:01:32;;;;;;;4.93;3.67;;;;;;;;;;10339511;28;20465;-88
2023/09/15 18:06:34;;;;;;;4.43;3.90;;;;;;;;;;10338636;28;20484;-87
2023/09/15 18:11:38;;;;;;;4.93;3.70;;;;;;;;;;10348149;28;20956;-87
2023/09/15 18:16:40;;;;;;;6.20;3.75;;;;;;;;;;10356661;28;20451;-88
2023/09/15 18:21:43;;;;;;;7.57;4.10;;;;;;;;;;10354571;28;20414;-88
2023/09/15 18:26:47;;;;;;;6.38;4.25;;;;;;;;;;10359929;28;20425;-87
2023/09/15 18:31:49;;;;;;;5.53;4.82;;;;;;;;;;10353348;28;20494;-87
2023/09/15 18:36:52;;;;;;;6.50;4.32;;;;;;;;;;10349555;28;20415;-87
2023/09/15 18:41:55;;;;;;;6.87;4.77;;;;;;;;;;10344247;28;20452;-88
2023/09/15 18:46:58;;;;;;;5.25;4.68;;;;;;;;;;10346136;28;20429;-87
2023/09/15 18:52:01;;;;;;;6.22;4.60;;;;;;;;;;10355744;28;20513;-87
2023/09/15 18:57:05;;;;;;;5.38;4.75;;;;;;;;;;10356456;28;20458;-87
2023/09/15 19:02:07;;;;;;;5.32;4.63;;;;;;;;;;10342685;28;20789;-87
2023/09/15 19:07:10;;;;;;;4.97;4.47;;;;;;;;;;10349031;28;20407;-87
2023/09/15 19:12:14;;;;;;;6.72;4.60;;;;;;;;;;10352505;28;20409;-87
2023/09/15 19:17:16;;;;;;;6.45;4.43;;;;;;;;;;10351875;28;20457;-85
2023/09/15 19:22:18;;;;;;;7.88;4.47;;;;;;;;;;10353906;28;21104;-84
2023/09/15 19:27:22;;;;;;;7.90;5.03;;;;;;;;;;10341951;28;20415;-85
2023/09/15 19:32:25;;;;;;;7.40;4.93;;;;;;;;;;10344999;28;20443;-86
2023/09/15 19:37:27;;;;;;;7.47;4.88;;;;;;;;;;10349164;28;20806;-85
2023/09/15 19:42:31;;;;;;;6.90;4.68;;;;;;;;;;10350252;28;20443;-87
2023/09/15 19:47:33;;;;;;;5.97;4.70;;;;;;;;;;10343610;28;20491;-86
2023/09/15 19:52:36;;;;;;;5.70;5.10;;;;;;;;;;10355951;28;20533;-86
2023/09/15 19:57:49;;;;;;;6.30;5.55;;;;;;;;;;10336074;28;20458;-86
2023/09/15 20:02:52;;;;;;;7.57;6.10;;;;;;;;;;10332152;28;20434;-86
2023/09/15 20:07:56;;;;;;;9.00;6.70;;;;;;;;;;10349894;28;20415;-86
2023/09/15 20:12:59;;;;;;;9.38;7.00;;;;;;;;;;10359186;28;20403;-87
2023/09/15 20:18:02;;;;;;;9.80;7.30;;;;;;;;;;10366511;28;20458;-86
2023/09/15 20:23:07;;;;;;;10.85;7.60;;;;;;;;;;10347413;28;20414;-87
2023/09/15 20:28:11;;;;;;;9.27;7.90;;;;;;;;;;10337999;28;20483;-85
2023/09/15 20:33:13;;;;;;;14.32;9.50;;;;;;;;;;10337595;28;20465;-86
2023/09/15 20:38:15;;;;;;;12.43;9.90;;;;;;;;;;10340073;28;20526;-87
2023/09/15 20:43:19;;;;;;;12.75;9.95;;;;;;;;;;10338169;28;20436;-86
2023/09/15 20:48:22;;;;;;;14.77;10.77;;;;;;;;;;10336489;28;20487;-86
2023/09/15 20:53:24;;;;;;;14.10;11.02;;;;;;;;;;10337650;28;20423;-85
2023/09/15 20:58:28;;;;;;;14.67;11.60;;;;;;;;;;10347883;28;20989;-86
2023/09/15 21:03:30;;;;;;;14.33;11.30;;;;;;;;;;10348732;28;20423;-86
2023/09/15 21:08:33;;;;;;;15.77;11.40;;;;;;;;;;10336427;28;20439;-86
2023/09/15 21:13:36;;;;;;;16.17;12.07;;;;;;;;;;10337507;28;20461;-86
2023/09/15 21:18:39;;;;;;;15.77;11.35;;;;;;;;;;10343672;28;20465;-86
2023/09/15 21:23:41;;;;;;;15.30;11.77;;;;;;;;;;10340483;28;20499;-86
2023/09/15 21:28:45;;;;;;;16.20;11.80;;;;;;;;;;10332273;28;20481;-84
2023/09/15 21:33:47;;;;;;;16.92;11.85;;;;;;;;;;10337706;28;20417;-86
2023/09/15 21:38:50;;;;;;;16.23;12.23;;;;;;;;;;10342693;28;20460;-85
2023/09/15 21:43:53;;;;;;;17.02;12.18;;;;;;;;;;10331700;28;20916;-85
2023/09/15 21:48:56;;;;;;;16.23;12.03;;;;;;;;;;10353834;28;20475;-86
2023/09/15 21:53:58;;;;;;;17.15;12.85;;;;;;;;;;10336928;28;20482;-86
2023/09/15 21:59:02;;;;;;;16.13;11.83;;;;;;;;;;10349180;28;20485;-85
2023/09/15 22:04:05;;;;;;;15.98;12.00;;;;;;;;;;10354542;28;20832;-85
2023/09/15 22:09:07;;;;;;;15.73;11.88;;;;;;;;;;10342775;28;20407;-86
2023/09/15 22:14:11;;;;;;;16.13;12.13;;;;;;;;;;10338561;28;20454;-85
2023/09/15 22:19:14;;;;;;;17.88;12.55;;;;;;;;;;10338065;28;20959;-84
2023/09/15 22:24:17;;;;;;;16.65;12.10;;;;;;;;;;10332364;28;20502;-84
2023/09/15 22:29:20;;;;;;;15.33;11.73;;;;;;;;;;10342004;28;20413;-85
2023/09/15 22:34:23;;;;;;;15.38;11.35;;;;;;;;;;10341024;28;20444;-84
2023/09/15 22:39:25;;;;;;;15.25;11.35;;;;;;;;;;10345496;28;20460;-84
2023/09/15 22:44:29;;;;;;;14.47;11.17;;;;;;;;;;10350208;28;20415;-84
2023/09/15 22:49:32;;;;;;;15.27;11.70;;;;;;;;;;10349713;28;20425;-84
2023/09/15 22:54:35;;;;;;;15.10;10.80;;;;;;;;;;10343564;28;20853;-86
2023/09/15 22:59:38;;;;;;;15.82;11.43;;;;;;;;;;10349627;28;20422;-86
2023/09/15 23:04:41;;;;;;;12.90;10.30;;;;;;;;;;10353825;28;20420;-86
2023/09/15 23:09:43;;;;;;;13.57;10.15;;;;;;;;;;10346789;28;20463;-86
2023/09/15 23:14:47;;;;;;;12.77;9.38;;;;;;;;;;10332842;28;20442;-86
2023/09/15 23:19:50;;;;;;;12.20;9.17;;;;;;;;;;10334458;23;20494;-90
2023/09/15 23:24:53;;;;;;;13.63;9.37;;;;;;;;;;10308765;28;20436;-90
2023/09/15 23:29:57;;;;;;;12.48;9.00;;;;;;;;;;10309072;28;20454;-89
2023/09/15 23:35:00;;;;;;;11.80;9.25;;;;;;;;;;10296569;28;20422;-90
2023/09/15 23:40:04;;;;;;;11.27;8.93;;;;;;;;;;10296416;28;20506;-90
2023/09/15 23:45:09;;;;;;;11.35;8.60;;;;;;;;;;10300215;28;20406;-89
2023/09/15 23:50:11;;;;;;;11.87;8.57;;;;;;;;;;10304031;28;20415;-89
2023/09/15 23:55:14;;;;;;;11.70;8.45;;;;;;;;;;10301156;28;20969;-89
